createdAt,value
2022-12-31T00:00:05.927Z,39.93
2022-12-31T00:02:33.053Z,41.60
2022-12-31T00:04:59.977Z,41.25
2022-12-31T00:07:27.711Z,41.45
2022-12-31T00:09:54.936Z,40.13
2022-12-31T00:12:21.971Z,43.20
2022-12-31T00:14:48.959Z,38.67
2022-12-31T00:17:16.934Z,39.45
2022-12-31T00:19:43.945Z,42.83
2022-12-31T00:22:10.826Z,40.15
2022-12-31T00:24:37.695Z,38.77
2022-12-31T00:27:04.545Z,42.60
2022-12-31T00:30:02.451Z,41.63
2022-12-31T00:32:32.883Z,40.13
2022-12-31T00:34:59.675Z,39.13
2022-12-31T00:37:29.978Z,41.07
2022-12-31T00:39:57.468Z,38.28
2022-12-31T00:42:24.559Z,38.40
2022-12-31T00:44:51.418Z,35.67
2022-12-31T00:47:18.259Z,34.90
2022-12-31T00:49:45.358Z,32.33
2022-12-31T00:52:12.187Z,32.03
2022-12-31T00:54:39.867Z,32.42
2022-12-31T00:57:06.618Z,31.23
2022-12-31T00:59:34.454Z,29.52
2022-12-31T01:02:01.410Z,30.53
2022-12-31T01:04:34.957Z,27.27
2022-12-31T01:07:01.800Z,30.77
2022-12-31T01:09:28.879Z,28.75
2022-12-31T01:11:57.492Z,28.27
2022-12-31T01:14:24.406Z,29.10
2022-12-31T01:16:57.078Z,29.55
2022-12-31T01:19:29.569Z,28.33
2022-12-31T01:21:59.028Z,28.80
2022-12-31T01:24:26.975Z,26.60
2022-12-31T01:26:53.879Z,27.93
2022-12-31T01:32:12.410Z,31.13
2022-12-31T01:34:39.394Z,28.17
2022-12-31T01:37:06.253Z,27.90
2022-12-31T01:39:33.161Z,29.73
2022-12-31T01:41:59.860Z,30.50
2022-12-31T01:44:27.994Z,29.58
2022-12-31T01:46:58.832Z,27.05
2022-12-31T01:49:31.003Z,28.30
2022-12-31T01:52:05.712Z,29.07
2022-12-31T01:54:43.005Z,29.88
2022-12-31T01:57:12.887Z,27.48
2022-12-31T01:59:41.164Z,26.95
2022-12-31T02:02:09.994Z,26.05
2022-12-31T02:04:38.522Z,29.10
2022-12-31T02:07:07.847Z,27.70
2022-12-31T02:09:40.058Z,28.42
2022-12-31T02:12:09.357Z,26.92
2022-12-31T02:14:50.952Z,28.05
2022-12-31T02:17:31.263Z,27.77
2022-12-31T02:20:22.614Z,28.63
2022-12-31T02:23:36.571Z,28.05
2022-12-31T02:26:35.626Z,25.90
2022-12-31T02:29:16.778Z,26.95
2022-12-31T02:32:12.649Z,29.10
2022-12-31T02:35:09.389Z,27.40
2022-12-31T02:37:39.935Z,27.88
2022-12-31T02:40:12.076Z,30.70
2022-12-31T02:42:43.090Z,28.30
2022-12-31T02:45:15.228Z,25.43
2022-12-31T02:48:19.939Z,29.13
2022-12-31T02:51:30.067Z,28.95
2022-12-31T02:53:58.969Z,26.35
2022-12-31T02:56:58.320Z,26.05
2022-12-31T02:59:28.269Z,25.30
2022-12-31T03:02:11.863Z,26.30
2022-12-31T03:04:41.567Z,27.65
2022-12-31T03:07:11.667Z,24.58
2022-12-31T03:09:39.074Z,26.90
2022-12-31T03:12:08.990Z,25.23
2022-12-31T03:14:36.912Z,27.30
2022-12-31T03:17:05.594Z,27.23
2022-12-31T03:19:32.919Z,27.73
2022-12-31T03:21:59.651Z,26.70
2022-12-31T03:24:26.939Z,25.57
2022-12-31T03:26:53.673Z,26.70
2022-12-31T03:29:22.034Z,24.95
2022-12-31T03:31:49.535Z,28.02
2022-12-31T03:34:16.271Z,29.02
2022-12-31T03:36:43.521Z,25.27
2022-12-31T03:39:10.403Z,23.02
2022-12-31T03:41:37.132Z,25.13
2022-12-31T03:44:05.994Z,24.48
2022-12-31T03:46:32.688Z,23.92
2022-12-31T03:48:59.525Z,24.93
2022-12-31T03:51:26.623Z,25.40
2022-12-31T03:53:53.499Z,27.27
2022-12-31T03:56:20.357Z,24.63
2022-12-31T03:58:48.020Z,23.88
2022-12-31T04:01:15.544Z,23.33
2022-12-31T04:03:44.038Z,27.25
2022-12-31T04:06:11.483Z,24.02
2022-12-31T04:08:42.017Z,25.95
2022-12-31T04:11:09.635Z,25.10
2022-12-31T04:13:37.945Z,23.63
2022-12-31T04:16:05.789Z,26.30
2022-12-31T04:18:32.980Z,21.67
2022-12-31T04:21:04.144Z,23.45
2022-12-31T04:23:32.060Z,24.65
2022-12-31T04:25:58.941Z,24.93
2022-12-31T04:28:26.467Z,26.05
2022-12-31T04:30:53.319Z,22.48
2022-12-31T04:33:20.236Z,26.27
2022-12-31T04:35:47.123Z,23.02
2022-12-31T04:38:14.208Z,22.57
2022-12-31T04:40:40.987Z,22.38
2022-12-31T04:43:09.310Z,26.25
2022-12-31T04:45:36.261Z,24.20
2022-12-31T04:48:03.633Z,22.42
2022-12-31T04:50:36.027Z,23.77
2022-12-31T04:53:02.881Z,23.55
2022-12-31T04:55:29.612Z,21.33
2022-12-31T04:57:58.245Z,22.80
2022-12-31T05:00:25.023Z,22.27
2022-12-31T05:02:55.476Z,23.07
2022-12-31T05:05:22.526Z,20.70
2022-12-31T05:07:49.261Z,23.63
2022-12-31T05:10:19.571Z,22.52
2022-12-31T05:13:12.106Z,20.52
2022-12-31T05:15:42.105Z,22.03
2022-12-31T05:18:08.980Z,22.80
2022-12-31T05:21:01.922Z,21.60
2022-12-31T05:23:29.821Z,21.88
2022-12-31T05:25:56.756Z,21.52
2022-12-31T05:28:28.068Z,23.77
2022-12-31T05:30:58.558Z,23.42
2022-12-31T05:33:25.306Z,23.13
2022-12-31T05:35:52.943Z,22.45
2022-12-31T05:38:19.643Z,22.08
2022-12-31T05:40:47.536Z,22.77
2022-12-31T05:43:15.054Z,20.63
2022-12-31T05:45:42.437Z,21.50
2022-12-31T05:48:15.936Z,23.08
2022-12-31T05:50:43.453Z,20.42
2022-12-31T05:53:10.348Z,22.97
2022-12-31T05:55:37.471Z,23.77
2022-12-31T05:58:06.983Z,21.85
2022-12-31T06:00:34.425Z,20.77
2022-12-31T06:03:01.388Z,20.52
2022-12-31T06:05:28.439Z,20.70
2022-12-31T06:07:59.067Z,22.80
2022-12-31T06:10:27.489Z,20.63
2022-12-31T06:12:54.319Z,23.13
2022-12-31T06:15:21.428Z,21.15
2022-12-31T06:17:49.137Z,22.43
2022-12-31T06:20:15.882Z,24.42
2022-12-31T06:22:43.473Z,22.42
2022-12-31T06:25:11.159Z,21.77
2022-12-31T06:27:38.060Z,21.95
2022-12-31T06:30:05.383Z,23.60
2022-12-31T06:32:32.472Z,21.50
2022-12-31T06:35:23.994Z,22.38
2022-12-31T06:40:46.033Z,22.95
2022-12-31T06:43:13.414Z,20.70
2022-12-31T06:45:40.645Z,20.27
2022-12-31T06:48:07.752Z,20.38
2022-12-31T06:50:34.943Z,22.52
2022-12-31T06:53:01.772Z,21.63
2022-12-31T06:55:28.966Z,22.07
2022-12-31T06:57:56.276Z,22.58
2022-12-31T07:00:23.741Z,22.70
2022-12-31T07:06:23.937Z,21.88
2022-12-31T07:08:59.665Z,21.50
2022-12-31T07:11:36.987Z,21.02
2022-12-31T07:14:13.393Z,21.67
2022-12-31T07:17:05.680Z,22.15
2022-12-31T07:19:57.818Z,21.65
2022-12-31T07:22:26.050Z,19.93
2022-12-31T07:24:53.126Z,21.63
2022-12-31T07:27:28.968Z,21.88
2022-12-31T07:29:58.435Z,21.33
2022-12-31T07:32:25.517Z,20.40
2022-12-31T07:35:12.788Z,20.33
2022-12-31T07:37:57.603Z,19.58
2022-12-31T07:40:36.000Z,18.70
2022-12-31T07:43:26.600Z,21.92
2022-12-31T07:46:12.984Z,20.75
2022-12-31T07:49:10.091Z,20.23
2022-12-31T07:51:39.943Z,22.58
2022-12-31T07:54:11.948Z,23.35
2022-12-31T07:56:46.987Z,19.83
2022-12-31T07:59:47.867Z,22.00
2022-12-31T08:06:12.063Z,23.45
2022-12-31T08:08:58.801Z,20.13
2022-12-31T08:11:55.043Z,22.50
2022-12-31T08:14:24.223Z,21.95
2022-12-31T08:16:51.346Z,24.63
2022-12-31T08:19:26.144Z,23.75
2022-12-31T08:22:26.474Z,21.95
2022-12-31T08:25:08.046Z,21.85
2022-12-31T08:28:09.108Z,20.27
2022-12-31T08:31:04.917Z,22.00
2022-12-31T08:33:43.745Z,20.00
2022-12-31T08:36:45.008Z,21.05
2022-12-31T08:39:55.947Z,23.55
2022-12-31T08:43:15.963Z,20.80
2022-12-31T08:45:49.721Z,20.60
2022-12-31T08:48:33.031Z,20.48
2022-12-31T08:51:03.648Z,19.33
2022-12-31T08:53:33.721Z,21.40
2022-12-31T08:56:34.799Z,20.00
2022-12-31T08:59:17.976Z,22.03
2022-12-31T09:01:54.615Z,19.90
2022-12-31T09:04:46.391Z,19.65
2022-12-31T09:07:22.034Z,20.30
2022-12-31T09:10:32.544Z,19.88
2022-12-31T09:13:35.943Z,21.37
2022-12-31T09:16:16.373Z,20.08
2022-12-31T09:18:43.892Z,18.27
2022-12-31T09:21:16.013Z,20.52
2022-12-31T09:23:43.663Z,18.80
2022-12-31T09:26:52.036Z,21.67
2022-12-31T09:29:55.123Z,18.38
2022-12-31T09:33:01.370Z,20.58
2022-12-31T09:35:52.603Z,19.95
2022-12-31T09:38:28.958Z,21.17
2022-12-31T09:41:12.964Z,21.70
2022-12-31T09:44:18.927Z,19.38
2022-12-31T09:47:18.726Z,23.23
2022-12-31T09:53:28.044Z,23.10
2022-12-31T09:56:13.020Z,20.77
2022-12-31T09:58:58.391Z,23.42
2022-12-31T10:01:53.443Z,20.58
2022-12-31T10:08:07.441Z,22.70
2022-12-31T10:10:55.999Z,21.80
2022-12-31T10:13:27.174Z,22.30
2022-12-31T10:16:02.471Z,20.83
2022-12-31T10:18:53.803Z,22.02
2022-12-31T10:21:37.043Z,23.70
2022-12-31T10:24:13.333Z,22.33
2022-12-31T10:26:53.535Z,22.30
2022-12-31T10:29:25.637Z,23.02
2022-12-31T10:32:31.178Z,21.35
2022-12-31T10:35:28.386Z,24.90
2022-12-31T10:38:16.082Z,23.03
2022-12-31T10:41:13.388Z,23.42
2022-12-31T10:44:01.944Z,21.13
2022-12-31T10:47:08.325Z,22.65
2022-12-31T10:53:14.895Z,22.13
2022-12-31T10:55:54.274Z,21.77
2022-12-31T10:58:36.674Z,20.85
2022-12-31T11:01:17.167Z,21.95
2022-12-31T11:04:30.133Z,21.38
2022-12-31T11:07:45.504Z,23.27
2022-12-31T11:10:18.961Z,24.33
2022-12-31T11:13:24.050Z,24.98
2022-12-31T11:16:19.301Z,22.33
2022-12-31T11:19:21.523Z,23.38
2022-12-31T11:22:10.986Z,25.30
2022-12-31T11:24:56.344Z,24.05
2022-12-31T11:31:14.981Z,25.02
2022-12-31T11:34:15.255Z,23.88
2022-12-31T11:37:10.874Z,22.37
2022-12-31T11:39:46.605Z,24.58
2022-12-31T11:42:40.874Z,23.20
2022-12-31T11:45:11.203Z,24.88
2022-12-31T11:51:01.979Z,24.53
2022-12-31T11:53:50.047Z,23.65
2022-12-31T11:56:19.697Z,22.23
2022-12-31T11:58:50.916Z,23.30
2022-12-31T12:01:24.725Z,22.15
2022-12-31T12:03:54.001Z,23.63
2022-12-31T12:06:27.385Z,24.52
2022-12-31T12:09:00.950Z,24.17
2022-12-31T12:11:32.945Z,23.08
2022-12-31T12:14:02.979Z,22.58
2022-12-31T12:16:29.953Z,23.97
2022-12-31T12:19:06.970Z,23.38
2022-12-31T12:21:34.594Z,23.02
2022-12-31T12:24:30.891Z,24.63
2022-12-31T12:26:58.158Z,22.02
2022-12-31T12:29:32.972Z,25.10
2022-12-31T12:32:02.202Z,24.95
2022-12-31T12:34:37.955Z,24.52
2022-12-31T12:37:25.792Z,26.65
2022-12-31T12:39:58.995Z,22.27
2022-12-31T12:42:26.823Z,25.13
2022-12-31T12:45:05.266Z,27.52
2022-12-31T12:47:33.544Z,21.92
2022-12-31T12:50:01.114Z,24.25
2022-12-31T12:52:41.845Z,23.17
2022-12-31T12:55:20.815Z,23.40
2022-12-31T12:58:00.175Z,22.77
2022-12-31T13:00:46.013Z,22.33
2022-12-31T13:03:16.277Z,24.85
2022-12-31T13:06:02.921Z,24.55
2022-12-31T13:09:00.436Z,23.83
2022-12-31T13:11:41.092Z,24.08
2022-12-31T13:14:25.955Z,22.63
2022-12-31T13:17:31.912Z,22.85
2022-12-31T13:20:08.934Z,23.50
2022-12-31T13:23:08.892Z,22.07
2022-12-31T13:26:00.579Z,22.80
2022-12-31T13:28:28.973Z,24.40
2022-12-31T13:31:06.542Z,23.00
2022-12-31T13:33:42.910Z,24.42
2022-12-31T13:36:21.234Z,25.47
2022-12-31T13:42:28.950Z,26.50
2022-12-31T13:45:04.166Z,23.70
2022-12-31T13:47:44.872Z,25.10
2022-12-31T13:50:19.595Z,23.90
2022-12-31T13:52:51.926Z,25.85
2022-12-31T13:55:19.455Z,27.55
2022-12-31T13:57:52.792Z,25.70
2022-12-31T14:00:19.566Z,26.83
2022-12-31T14:02:53.111Z,24.93
2022-12-31T14:05:31.445Z,26.17
2022-12-31T14:10:53.447Z,25.73
2022-12-31T14:13:40.999Z,27.40
2022-12-31T14:16:38.329Z,25.10
2022-12-31T14:19:13.900Z,25.50
2022-12-31T14:21:52.770Z,25.88
2022-12-31T14:24:44.142Z,24.27
2022-12-31T14:30:21.281Z,26.03
2022-12-31T14:33:26.113Z,26.67
2022-12-31T14:39:18.981Z,28.75
2022-12-31T14:42:16.202Z,26.15
2022-12-31T14:45:17.014Z,25.20
2022-12-31T14:48:22.280Z,26.55
2022-12-31T14:50:51.577Z,24.25
2022-12-31T14:53:24.399Z,22.48
2022-12-31T14:56:30.224Z,24.45
2022-12-31T14:59:00.800Z,24.17
2022-12-31T15:01:29.059Z,23.23
2022-12-31T15:03:57.741Z,26.75
2022-12-31T15:06:45.929Z,25.17
2022-12-31T15:09:50.594Z,24.40
2022-12-31T15:16:11.947Z,25.42
2022-12-31T15:18:48.245Z,24.80
2022-12-31T15:21:27.992Z,25.90
2022-12-31T15:24:00.902Z,25.10
2022-12-31T15:26:32.334Z,23.00
2022-12-31T15:29:39.450Z,24.23
2022-12-31T15:32:18.703Z,28.42
2022-12-31T15:34:46.814Z,26.60
2022-12-31T15:37:35.952Z,26.50
2022-12-31T15:40:19.593Z,27.53
2022-12-31T15:43:33.031Z,27.60
2022-12-31T15:46:02.049Z,24.65
2022-12-31T15:48:43.236Z,53.13
2022-12-31T15:51:33.304Z,49.72
2022-12-31T15:54:03.093Z,64.40
2022-12-31T15:56:41.237Z,43.53
2022-12-31T15:59:15.933Z,38.88
2022-12-31T16:01:44.894Z,36.83
2022-12-31T16:04:18.015Z,32.45
2022-12-31T16:06:50.617Z,32.10
2022-12-31T16:09:25.882Z,32.35
2022-12-31T16:11:55.288Z,32.33
2022-12-31T16:14:46.418Z,32.17
2022-12-31T16:17:30.053Z,33.28
2022-12-31T16:19:58.012Z,34.30
2022-12-31T16:22:26.569Z,33.67
2022-12-31T16:27:46.326Z,32.20
2022-12-31T16:30:23.040Z,29.90
2022-12-31T16:32:51.131Z,31.17
2022-12-31T16:35:28.091Z,33.03
2022-12-31T16:38:13.483Z,35.50
2022-12-31T16:40:43.425Z,41.33
2022-12-31T16:43:29.033Z,44.15
2022-12-31T16:46:11.958Z,50.17
2022-12-31T16:48:39.572Z,48.53
2022-12-31T16:51:07.316Z,49.05
2022-12-31T16:53:37.938Z,45.80
2022-12-31T16:56:09.900Z,42.95
2022-12-31T16:58:44.178Z,40.03
2022-12-31T17:01:26.184Z,43.58
2022-12-31T17:04:09.727Z,42.25
2022-12-31T17:07:30.246Z,46.05
2022-12-31T17:10:07.242Z,42.97
2022-12-31T17:13:24.968Z,40.80
2022-12-31T17:15:56.628Z,42.88
2022-12-31T17:18:30.899Z,43.38
2022-12-31T17:21:11.174Z,40.60
2022-12-31T17:23:40.931Z,42.78
2022-12-31T17:26:13.650Z,43.10
2022-12-31T17:28:57.182Z,41.30
2022-12-31T17:31:36.617Z,42.75
2022-12-31T17:34:14.003Z,40.47
2022-12-31T17:37:02.720Z,42.33
2022-12-31T17:40:24.557Z,47.17
2022-12-31T17:42:49.327Z,53.47
2022-12-31T17:45:22.010Z,55.20
2022-12-31T17:47:51.568Z,54.60
2022-12-31T17:50:19.822Z,57.17
2022-12-31T17:52:47.660Z,58.77
2022-12-31T17:55:16.238Z,56.25
2022-12-31T17:57:52.731Z,50.33
2022-12-31T18:00:25.006Z,45.15
2022-12-31T18:02:53.469Z,41.40
2022-12-31T18:05:22.953Z,42.17
2022-12-31T18:07:50.867Z,36.95
2022-12-31T18:10:22.682Z,39.03
2022-12-31T18:12:49.937Z,40.70
2022-12-31T18:15:23.075Z,43.10
2022-12-31T18:17:51.361Z,42.80
2022-12-31T18:20:18.699Z,41.15
2022-12-31T18:28:08.828Z,39.90
2022-12-31T18:31:00.868Z,37.63
2022-12-31T18:33:27.851Z,39.92
2022-12-31T18:36:08.882Z,40.80
2022-12-31T18:38:36.867Z,41.15
2022-12-31T18:41:04.438Z,54.95
2022-12-31T18:43:34.358Z,48.33
2022-12-31T18:46:01.160Z,45.78
2022-12-31T18:48:29.993Z,51.83
2022-12-31T18:50:56.793Z,60.80
2022-12-31T18:53:24.312Z,57.95
2022-12-31T18:55:57.163Z,54.47
2022-12-31T18:58:24.715Z,60.10
2022-12-31T19:00:52.951Z,69.20
2022-12-31T19:03:23.821Z,70.22
2022-12-31T19:05:52.275Z,70.38
2022-12-31T19:08:23.874Z,100.90
2022-12-31T19:10:52.206Z,94.88
2022-12-31T19:13:20.822Z,86.18
2022-12-31T19:15:50.990Z,80.72
2022-12-31T19:18:18.130Z,79.35
2022-12-31T19:20:45.851Z,80.37
2022-12-31T19:23:15.474Z,82.28
2022-12-31T19:25:47.963Z,81.68
2022-12-31T19:28:18.548Z,88.22
2022-12-31T19:30:45.769Z,84.18
2022-12-31T19:33:13.981Z,86.53
2022-12-31T19:35:41.749Z,83.53
2022-12-31T19:38:27.845Z,82.93
2022-12-31T19:40:55.630Z,81.75
2022-12-31T19:43:24.071Z,80.35
2022-12-31T19:45:51.946Z,90.33
2022-12-31T19:48:47.013Z,85.28
2022-12-31T19:51:19.801Z,86.97
2022-12-31T19:53:49.019Z,96.95
2022-12-31T19:56:19.611Z,89.10
2022-12-31T19:58:47.923Z,90.43
2022-12-31T20:01:23.025Z,104.07
2022-12-31T20:03:50.618Z,103.65
2022-12-31T20:06:22.898Z,98.97
2022-12-31T20:08:49.724Z,95.03
2022-12-31T20:11:21.932Z,94.17
2022-12-31T20:13:51.628Z,144.65
2022-12-31T20:16:20.950Z,120.32
2022-12-31T20:18:49.410Z,105.57
2022-12-31T20:21:41.898Z,91.50
2022-12-31T20:24:12.375Z,93.70
2022-12-31T20:26:40.434Z,89.97
2022-12-31T20:29:07.255Z,94.28
2022-12-31T20:31:59.231Z,97.45
2022-12-31T20:34:26.147Z,86.20
2022-12-31T20:36:53.488Z,88.67
2022-12-31T20:39:20.903Z,84.63
2022-12-31T20:41:49.936Z,88.97
2022-12-31T20:44:21.896Z,91.97
2022-12-31T20:46:49.511Z,84.22
2022-12-31T20:49:26.968Z,89.70
2022-12-31T20:52:04.547Z,97.43
2022-12-31T20:54:34.147Z,115.43
2022-12-31T20:57:01.087Z,132.57
2022-12-31T20:59:27.983Z,121.38
2022-12-31T21:04:46.407Z,110.82
2022-12-31T21:07:15.382Z,102.53
2022-12-31T21:09:42.144Z,118.20
2022-12-31T21:12:11.621Z,129.95
2022-12-31T21:14:44.814Z,114.10
2022-12-31T21:17:12.244Z,105.13
2022-12-31T21:19:39.551Z,100.25
2022-12-31T21:22:06.445Z,104.15
2022-12-31T21:24:34.227Z,103.28
2022-12-31T21:27:02.483Z,98.03
2022-12-31T21:29:34.370Z,90.47
2022-12-31T21:32:01.777Z,85.88
2022-12-31T21:34:28.580Z,91.80
2022-12-31T21:36:55.810Z,94.32
2022-12-31T21:39:23.142Z,94.73
2022-12-31T21:41:49.997Z,90.45
2022-12-31T21:44:18.940Z,92.57
2022-12-31T21:47:24.777Z,91.57
2022-12-31T21:49:37.559Z,82.40
2022-12-31T21:52:05.689Z,94.73
2022-12-31T21:54:32.943Z,109.50
2022-12-31T21:57:00.399Z,103.97
2022-12-31T21:59:31.311Z,100.78
2022-12-31T22:02:00.305Z,103.28
2022-12-31T22:05:00.773Z,100.60
2022-12-31T22:07:16.130Z,96.38
2022-12-31T22:09:42.944Z,93.07
2022-12-31T22:12:09.813Z,101.60
2022-12-31T22:14:38.952Z,98.20
2022-12-31T22:17:07.392Z,97.87
2022-12-31T22:19:54.690Z,95.95
2022-12-31T22:22:24.981Z,95.50
2022-12-31T22:24:52.017Z,97.72
2022-12-31T22:28:04.416Z,111.82
2022-12-31T22:30:34.738Z,112.93
2022-12-31T22:33:02.005Z,108.72
2022-12-31T22:35:29.026Z,106.93
2022-12-31T22:37:59.021Z,107.25
2022-12-31T22:40:27.311Z,102.80
2022-12-31T22:42:55.312Z,96.17
2022-12-31T22:45:22.464Z,93.22
2022-12-31T22:47:49.464Z,99.93
2022-12-31T22:50:16.503Z,101.40
2022-12-31T22:52:44.028Z,96.88
2022-12-31T22:55:10.812Z,91.07
2022-12-31T22:57:41.985Z,92.15
2022-12-31T23:00:13.183Z,91.25
2022-12-31T23:02:42.113Z,94.22
2022-12-31T23:05:15.368Z,85.63
2022-12-31T23:08:18.643Z,85.10
2022-12-31T23:10:52.453Z,78.40
2022-12-31T23:13:21.319Z,69.15
2022-12-31T23:15:48.158Z,75.40
2022-12-31T23:18:15.294Z,76.50
2022-12-31T23:20:42.127Z,80.83
2022-12-31T23:23:17.320Z,70.70
2022-12-31T23:25:50.093Z,76.43
2022-12-31T23:31:19.110Z,148.35
2022-12-31T23:33:45.897Z,149.07
2022-12-31T23:36:13.963Z,154.02
2022-12-31T23:38:40.848Z,152.15
2022-12-31T23:44:06.958Z,181.70
2022-12-31T23:46:33.756Z,235.03
2022-12-31T23:49:02.918Z,207.45
2022-12-31T23:51:29.961Z,277.50
2022-12-31T23:53:56.828Z,269.85
2022-12-31T23:56:24.213Z,302.50
2022-12-31T23:58:58.042Z,299.50
